Bookmark and Share
Track history (hours):
 

Xunlong5

Last reported at 2014-Apr-22 02:20 UTC. Time now 2014-Apr-24 22:19 UTC.
Position N 22°19' E 114°06'.

Length 34 m; draft 1.4 m.

Type: High speed craft. MMSI: 413471870.

NotesDate/timePositionNaut miles runAvg speedWind from/ knotsBaromVisibWave heightAir tempDewpointWater temp
2014-Apr-22 02:20N 22°19' E 114°06'  
2014-Apr-18 08:34N 22°25' E 113°45'4 3.9
2014-Apr-18 07:33N 22°28' E 113°47'2020.0
2014-Apr-18 06:33N 22°12' E 113°34'1615.6
2014-Apr-18 05:34N 22°24' E 113°44'9 9.1
2014-Apr-18 04:33N 22°32' E 113°48'2525.5
2014-Apr-18 03:34N 22°10' E 113°35'1716.5
2014-Apr-18 02:34N 22°24' E 113°44'1311.4
2014-Apr-18 01:26N 22°36' E 113°48'2427.6
2014-Apr-18 00:34N 22°13' E 113°40'6 5.8
2014-Apr-17 23:29N 22°10' E 113°35'0 0.0
2014-Apr-17 22:28N 22°10' E 113°35'0 0.0
2014-Apr-17 21:29N 22°10' E 113°35'0 0.0
2014-Apr-17 20:28N 22°10' E 113°35'0 0.0
2014-Apr-17 19:28N 22°10' E 113°35'0 0.0
2014-Apr-17 18:28N 22°10' E 113°35'0 0.0
2014-Apr-17 17:29N 22°10' E 113°35'0 0.0
2014-Apr-17 16:10N 22°10' E 113°35'2 0.2
2014-Apr-17 06:33N 22°12' E 113°34'1414.4
2014-Apr-17 05:33N 22°23' E 113°44'1010.0
2014-Apr-17 04:33N 22°32' E 113°48'2525.1
2014-Apr-17 03:33N 22°10' E 113°35'1616.1
2014-Apr-17 02:33N 22°23' E 113°44'1311.8
2014-Apr-17 01:25N 22°36' E 113°49'2427.7
2014-Apr-17 00:33N 22°13' E 113°41'6 6.5
2014-Apr-16 23:33N 22°10' E 113°35'0 0.0
2014-Apr-16 22:33N 22°10' E 113°35'0 0.0
2014-Apr-16 21:33N 22°10' E 113°35'0 0.0
2014-Apr-16 20:33N 22°10' E 113°35'0 0.0
2014-Apr-16 19:33N 22°10' E 113°35'0 0.0
2014-Apr-16 18:33N 22°10' E 113°35'0 0.0
2014-Apr-16 17:33N 22°10' E 113°35'0 0.0
2014-Apr-16 16:33N 22°10' E 113°35'0 0.0
2014-Apr-16 15:33N 22°10' E 113°35'0 0.0
2014-Apr-16 14:33N 22°10' E 113°35'0 0.0
2014-Apr-16 13:33N 22°10' E 113°35'0 0.0
2014-Apr-16 12:33N 22°10' E 113°35'1818.4
2014-Apr-16 11:33N 22°25' E 113°45'1 1.4
2014-Apr-16 10:33N 22°27' E 113°46'1818.4
2014-Apr-16 09:33N 22°12' E 113°34'1817.9
2014-Apr-16 08:33N 22°26' E 113°46'1 1.4
2014-Apr-16 07:33N 22°27' E 113°46'1919.1
2014-Apr-16 06:33N 22°12' E 113°34'1716.8
2014-Apr-16 05:34N 22°25' E 113°45'8 7.6
2014-Apr-16 04:33N 22°32' E 113°48'2524.9
2014-Apr-16 03:33N 22°10' E 113°35'1515.1
2014-Apr-16 02:33N 22°23' E 113°44'1412.3
2014-Apr-16 01:25N 22°36' E 113°49'2427.6
2014-Apr-16 00:33N 22°14' E 113°41'7 6.5
2014-Apr-15 23:32N 22°10' E 113°35'0 0.0
2014-Apr-15 22:33N 22°10' E 113°35'0 0.0
2014-Apr-15 21:33N 22°10' E 113°35'0 0.0
2014-Apr-15 20:32N 22°10' E 113°35'0 0.0
2014-Apr-15 19:33N 22°10' E 113°35'0 0.0
2014-Apr-15 18:33N 22°10' E 113°35'0 0.0
2014-Apr-15 17:33N 22°10' E 113°35'0 0.0
2014-Apr-15 16:33N 22°10' E 113°35'0 0.0
2014-Apr-15 15:33N 22°10' E 113°35'0 0.0
2014-Apr-15 14:33N 22°10' E 113°35'0 0.0
2014-Apr-15 12:33N 22°10' E 113°35'0 0.0
2014-Apr-15 11:34N 22°10' E 113°35'1615.8
2014-Apr-15 10:34N 22°23' E 113°44'6 6.5
2014-Apr-15 09:34N 22°29' E 113°47'2121.1
2014-Apr-15 08:34N 22°12' E 113°34'1817.6
2014-Apr-15 07:34N 22°26' E 113°45'1 0.8
2014-Apr-15 06:34N 22°26' E 113°46'1818.1
2014-Apr-15 05:33N 22°12' E 113°34'2211.1
2014-Apr-15 03:34N 22°30' E 113°47'2323.2
2014-Apr-15 02:34N 22°10' E 113°35'1616.2
2014-Apr-15 01:34N 22°23' E 113°45'1313.0
2014-Apr-15 00:31N 22°36' E 113°49'2424.8
2014-Apr-14 23:33N 22°13' E 113°41'6 6.5
2014-Apr-14 22:34N 22°10' E 113°35'0 0.0
2014-Apr-14 21:33N 22°10' E 113°35'0 0.0
2014-Apr-14 20:33N 22°10' E 113°35'0 0.0
2014-Apr-14 19:34N 22°10' E 113°35'0 0.0
2014-Apr-14 18:34N 22°10' E 113°35'0 0.0
2014-Apr-14 17:34N 22°10' E 113°35'0 0.0
2014-Apr-14 16:34N 22°10' E 113°35'0 0.0
2014-Apr-14 15:34N 22°10' E 113°35'0 0.0
2014-Apr-14 14:33N 22°10' E 113°35'0 0.0
2014-Apr-14 13:34N 22°10' E 113°35'0 0.0
2014-Apr-14 11:34N 22°10' E 113°35'1515.2
2014-Apr-14 10:34N 22°21' E 113°46'1111.0
2014-Apr-14 09:33N 22°29' E 113°55'0 0.0
2014-Apr-14 08:33N 22°29' E 113°55'1717.0
2014-Apr-14 07:34N 22°17' E 113°42'8 8.0
2014-Apr-14 06:33N 22°11' E 113°36'2525.0
2014-Apr-14 05:33N 22°29' E 113°55'0 0.0
2014-Apr-13 22:29N 22°29' E 113°55'0 0.0
2014-Apr-13 21:30N 22°29' E 113°55'0 0.0
2014-Apr-13 20:27N 22°29' E 113°55'0 0.0
2014-Apr-13 19:15N 22°29' E 113°55'0 0.0
2014-Apr-13 18:29N 22°29' E 113°55'0 0.0
2014-Apr-13 17:29N 22°29' E 113°55'0 0.0
2014-Apr-13 16:32N 22°29' E 113°55'0 0.0
2014-Apr-13 15:29N 22°29' E 113°55'0 0.0
2014-Apr-13 14:33N 22°29' E 113°55'6 4.5
2014-Apr-13 13:12N 22°23' E 113°54'6 9.2
2014-Apr-13 12:32N 22°29' E 113°55'1717.2
2014-Apr-13 11:33N 22°17' E 113°42'4 4.2
2014-Apr-13 10:33N 22°13' E 113°39'2119.2
2014-Apr-13 09:28N 22°29' E 113°55'2 2.5
2014-Apr-13 08:33N 22°27' E 113°54'2424.3
2014-Apr-13 07:33N 22°10' E 113°35'1616.3
2014-Apr-13 06:33N 22°21' E 113°48'1211.2
2014-Apr-13 05:28N 22°21' E 114°01'5 5.4
2014-Apr-13 04:33N 22°19' E 114°06'1413.9
2014-Apr-13 03:32N 22°29' E 113°55'2323.3
2014-Apr-13 02:33N 22°12' E 113°38'6 6.4
2014-Apr-13 01:33N 22°17' E 113°42'1716.6
2014-Apr-13 00:33N 22°29' E 113°55'0 0.0
2014-Apr-12 23:33N 22°29' E 113°55'0 0.1
2014-Apr-12 22:33N 22°29' E 113°55'0 0.0
2014-Apr-12 21:33N 22°29' E 113°55'0 0.0
2014-Apr-12 20:33N 22°29' E 113°55'0 0.0
2014-Apr-12 19:31N 22°29' E 113°55'0 0.0
2014-Apr-12 18:30N 22°29' E 113°55'0 0.0
2014-Apr-12 17:32N 22°29' E 113°55'0 0.0
2014-Apr-12 16:33N 22°29' E 113°55'0 0.0
2014-Apr-12 15:33N 22°29' E 113°55'0 0.0
2014-Apr-12 14:33N 22°29' E 113°55'7 5.1
2014-Apr-12 13:16N 22°22' E 113°55'7 8.8
2014-Apr-12 12:31N 22°29' E 113°55'1718.1
2014-Apr-12 11:33N 22°16' E 113°42'5 5.2
2014-Apr-12 10:33N 22°12' E 113°38'2321.1
2014-Apr-12 09:29N 22°29' E 113°55'4 4.4
2014-Apr-12 08:32N 22°25' E 113°53'2322.5
2014-Apr-12 07:32N 22°10' E 113°35'2020.0
2014-Apr-12 06:33N 22°23' E 113°51'7 7.0
2014-Apr-12 05:33N 22°21' E 113°58'7 7.4
2014-Apr-12 04:33N 22°19' E 114°06'1414.3
2014-Apr-12 03:33N 22°29' E 113°55'2323.5
2014-Apr-12 02:33N 22°11' E 113°38'  

Dump ship's entire track history

sailing weather and tide predictions

Xunlong5 — BYGW — position and weather